Golden Unity — 3FLG — position and weather

sailwx.info

Track history (hours):
 
Tides and Currents Weather Stations Pressure Air Temp Water Temp Dewpoint Dewpoint Depression Visibility Wind Speed Wind Dir Waves Ship Positions

Golden Unity

Last reported at 2018-Jun-15 10:34 UTC. Time now 2018-Jun-18 19:28 UTC.
Position N 31°07' E 122°17'.

Length 155 m; draft 6.8 m.

Type: Ship. MMSI: 352565000.

Date/timePositionNaut miles runAvg speedWind from/ knotsBaromVisibWave heightAir tempDewpointWater temp
2018-Jun-15 10:34N 31°07' E 122°17'1214.8
2018-Jun-15 09:46N 31°14' E 122°05'515.2
2018-Jun-15 09:25N 31°15' E 121°59'12 0.4
2018-Jun-14 05:01N 31°16' E 121°45'012.0
2018-Jun-14 05:00N 31°16' E 121°45'711.2
2018-Jun-14 04:23N 31°11' E 121°51'513.8
2018-Jun-14 04:00N 31°08' E 121°56'713.1
2018-Jun-14 03:30N 31°05' E 122°02'612.6
2018-Jun-14 03:00N 31°03' E 122°10'510.4
2018-Jun-14 02:30N 31°03' E 122°16'5 7.0
2018-Jun-14 01:50N 31°02' E 122°21'4 7.3
2018-Jun-14 01:19N 31°02' E 122°26'5 9.0
2018-Jun-14 00:46N 31°01' E 122°31'4 8.7
2018-Jun-14 00:19N 31°01' E 122°36'1 2.1
2018-Jun-13 23:43N 31°01' E 122°37'0 0.1
2018-Jun-13 22:19N 31°01' E 122°37'0 0.1
2018-Jun-13 21:04N 31°01' E 122°38'0 0.1
2018-Jun-13 20:55N 31°01' E 122°38'0 0.0
2018-Jun-13 20:25N 31°01' E 122°38'0 0.0
2018-Jun-13 19:58N 31°01' E 122°38'0 0.0
2018-Jun-13 19:28N 31°01' E 122°38'0 0.0
2018-Jun-13 15:01N 31°01' E 122°37'0 0.7
2018-Jun-13 14:52N 31°01' E 122°37'2 4.5
2018-Jun-13 14:30N 31°02' E 122°39'5813.6
2018-Jun-13 10:12N 30°12' E 123°15'31913.9
2018-Jun-12 11:16N 25°18' E 120°55'913.1
2018-Jun-12 10:34N 25°10' E 120°49'113.3
2018-Jun-12 10:30N 25°10' E 120°48'713.6
2018-Jun-12 10:00N 25°04' E 120°44'913.8
2018-Jun-12 09:23N 24°57' E 120°39'513.8
2018-Jun-12 09:00N 24°52' E 120°36'2313.7
2018-Jun-12 07:20N 24°33' E 120°23'614.0
2018-Jun-12 06:54N 24°27' E 120°25'614.0
2018-Jun-12 06:30N 24°22' E 120°26'611.1
2018-Jun-12 06:00N 24°17' E 120°30'30 4.1
2018-Jun-11 22:44N 23°60' E 120°04'815.7
2018-Jun-11 22:13N 23°53' E 119°59'515.9
2018-Jun-11 21:54N 23°48' E 119°57'616.0
2018-Jun-11 21:30N 23°42' E 119°56'816.2
2018-Jun-11 21:00N 23°34' E 119°56'815.7
2018-Jun-11 20:30N 23°26' E 119°56'915.4
2018-Jun-11 19:57N 23°17' E 119°56'1014.6
2018-Jun-11 19:14N 23°07' E 119°55'413.6
2018-Jun-11 18:55N 23°03' E 119°55'613.8
2018-Jun-11 18:29N 22°57' E 119°57'813.5
2018-Jun-11 17:53N 22°50' E 120°01'513.2
2018-Jun-11 17:30N 22°45' E 120°04'612.5
2018-Jun-11 17:00N 22°40' E 120°07'612.6
2018-Jun-11 16:30N 22°38' E 120°13'4 7.6
2018-Jun-11 16:00N 22°36' E 120°17'0 0.0
2018-Jun-11 11:20N 22°36' E 120°17'0 0.0
2018-Jun-11 09:20N 22°36' E 120°17'0 0.0
2018-Jun-11 08:56N 22°36' E 120°17'0 0.0
2018-Jun-11 08:26N 22°36' E 120°17'0 0.0
2018-Jun-11 07:50N 22°36' E 120°17'0 0.0
2018-Jun-11 07:26N 22°36' E 120°17'0 0.0
2018-Jun-11 06:56N 22°36' E 120°17'0 0.0
2018-Jun-11 06:26N 22°36' E 120°17'0 0.0
2018-Jun-11 05:56N 22°36' E 120°17'0 0.0
2018-Jun-11 05:26N 22°36' E 120°17'0 0.0
2018-Jun-11 04:44N 22°36' E 120°17'0 0.0
2018-Jun-11 04:26N 22°36' E 120°17'0 0.0
2018-Jun-11 03:56N 22°36' E 120°17'0 0.0
2018-Jun-11 03:26N 22°36' E 120°17'0 0.0
2018-Jun-11 02:56N 22°36' E 120°17'0 0.0
2018-Jun-11 02:26N 22°36' E 120°17'0 0.0
2018-Jun-11 01:56N 22°36' E 120°17'0 0.0
2018-Jun-11 01:26N 22°36' E 120°17'0 0.0
2018-Jun-11 00:38N 22°36' E 120°17'0 0.0
2018-Jun-11 00:20N 22°36' E 120°17'0 0.0
2018-Jun-10 23:56N 22°36' E 120°17'0 0.0
2018-Jun-10 23:26N 22°36' E 120°17'0 0.0
2018-Jun-10 22:56N 22°36' E 120°17'0 0.0
2018-Jun-10 22:26N 22°36' E 120°17'0 0.0
2018-Jun-10 21:56N 22°36' E 120°17'0 0.6
2018-Jun-10 21:30N 22°36' E 120°17'1 1.8
2018-Jun-10 20:54N 22°35' E 120°18'0 0.0
2018-Jun-10 20:24N 22°35' E 120°18'0 0.0
2018-Jun-10 20:00N 22°35' E 120°18'0 0.0
2018-Jun-10 19:30N 22°35' E 120°18'0 0.0
2018-Jun-10 19:00N 22°35' E 120°18'0 0.0
2018-Jun-10 18:30N 22°35' E 120°18'0 0.0
2018-Jun-10 18:00N 22°35' E 120°18'0 0.0
2018-Jun-10 17:30N 22°35' E 120°18'0 0.0
2018-Jun-10 17:00N 22°35' E 120°18'0 0.0
2018-Jun-10 16:30N 22°35' E 120°18'0 0.0
2018-Jun-10 14:54N 22°35' E 120°18'0 0.0
2018-Jun-10 14:30N 22°35' E 120°18'0 0.0
2018-Jun-10 13:12N 22°35' E 120°18'0 0.0
2018-Jun-10 09:42N 22°35' E 120°18'0 0.0
2018-Jun-10 09:30N 22°35' E 120°18'0 0.0
2018-Jun-10 09:00N 22°35' E 120°18'0 0.0
2018-Jun-10 07:24N 22°35' E 120°18'0 0.0
2018-Jun-10 03:48N 22°35' E 120°18'0 0.0
2018-Jun-10 03:18N 22°35' E 120°18'0 0.0
2018-Jun-10 03:00N 22°35' E 120°18'0 0.0
2018-Jun-10 00:43N 22°35' E 120°18'0 2.1
2018-Jun-10 00:30N 22°35' E 120°18'3 5.9
2018-Jun-10 00:00N 22°37' E 120°15'2 4.5
2018-Jun-09 23:30N 22°37' E 120°13'3 5.2
2018-Jun-09 23:00N 22°37' E 120°10'3 6.5
2018-Jun-09 22:30N 22°36' E 120°07'1 2.2
2018-Jun-09 22:00N 22°36' E 120°06'0 1.0
2018-Jun-09 21:29N 22°35' E 120°05'2 4.2
2018-Jun-09 21:00N 22°34' E 120°04'1 2.3
2018-Jun-09 20:29N 22°33' E 120°03'1 1.5
2018-Jun-09 20:00N 22°34' E 120°03'3 5.2
2018-Jun-09 19:30N 22°32' E 120°01'4 7.5
2018-Jun-09 19:00N 22°28' E 120°01'6 9.8
2018-Jun-09 18:22N 22°22' E 120°01'3 8.9
2018-Jun-09 18:00N 22°19' E 120°01'3 6.4
2018-Jun-09 17:30N 22°15' E 120°01'7 6.7
2018-Jun-09 16:31N 22°09' E 119°60'  
Track history (hours):
 
Tides and Currents Weather Stations Pressure Air Temp Water Temp Dewpoint Dewpoint Depression Visibility Wind Speed Wind Dir Waves Ship Positions

Golden Unity

Last reported at 2018-Jun-15 10:34 UTC. Time now 2018-Jun-18 19:28 UTC.
Position N 31°07' E 122°17'.

Length 155 m; draft 6.8 m.

Type: Ship. MMSI: 352565000.

Date/timePositionNaut miles runAvg speedWind from/ knotsBaromVisibWave heightAir tempDewpointWater temp
2018-Jun-15 10:34N 31°07' E 122°17'1214.8
2018-Jun-15 09:46N 31°14' E 122°05'515.2
2018-Jun-15 09:25N 31°15' E 121°59'12 0.4
2018-Jun-14 05:01N 31°16' E 121°45'012.0
2018-Jun-14 05:00N 31°16' E 121°45'711.2
2018-Jun-14 04:23N 31°11' E 121°51'513.8
2018-Jun-14 04:00N 31°08' E 121°56'713.1
2018-Jun-14 03:30N 31°05' E 122°02'612.6
2018-Jun-14 03:00N 31°03' E 122°10'510.4
2018-Jun-14 02:30N 31°03' E 122°16'5 7.0
2018-Jun-14 01:50N 31°02' E 122°21'4 7.3
2018-Jun-14 01:19N 31°02' E 122°26'5 9.0
2018-Jun-14 00:46N 31°01' E 122°31'4 8.7
2018-Jun-14 00:19N 31°01' E 122°36'1 2.1
2018-Jun-13 23:43N 31°01' E 122°37'0 0.1
2018-Jun-13 22:19N 31°01' E 122°37'0 0.1
2018-Jun-13 21:04N 31°01' E 122°38'0 0.1
2018-Jun-13 20:55N 31°01' E 122°38'0 0.0
2018-Jun-13 20:25N 31°01' E 122°38'0 0.0
2018-Jun-13 19:58N 31°01' E 122°38'0 0.0
2018-Jun-13 19:28N 31°01' E 122°38'0 0.0
2018-Jun-13 15:01N 31°01' E 122°37'0 0.7
2018-Jun-13 14:52N 31°01' E 122°37'2 4.5
2018-Jun-13 14:30N 31°02' E 122°39'5813.6
2018-Jun-13 10:12N 30°12' E 123°15'31913.9
2018-Jun-12 11:16N 25°18' E 120°55'913.1
2018-Jun-12 10:34N 25°10' E 120°49'113.3
2018-Jun-12 10:30N 25°10' E 120°48'713.6
2018-Jun-12 10:00N 25°04' E 120°44'913.8
2018-Jun-12 09:23N 24°57' E 120°39'513.8
2018-Jun-12 09:00N 24°52' E 120°36'2313.7
2018-Jun-12 07:20N 24°33' E 120°23'614.0
2018-Jun-12 06:54N 24°27' E 120°25'614.0
2018-Jun-12 06:30N 24°22' E 120°26'611.1
2018-Jun-12 06:00N 24°17' E 120°30'30 4.1
2018-Jun-11 22:44N 23°60' E 120°04'815.7
2018-Jun-11 22:13N 23°53' E 119°59'515.9
2018-Jun-11 21:54N 23°48' E 119°57'616.0
2018-Jun-11 21:30N 23°42' E 119°56'816.2
2018-Jun-11 21:00N 23°34' E 119°56'815.7
2018-Jun-11 20:30N 23°26' E 119°56'915.4
2018-Jun-11 19:57N 23°17' E 119°56'1014.6
2018-Jun-11 19:14N 23°07' E 119°55'413.6
2018-Jun-11 18:55N 23°03' E 119°55'613.8
2018-Jun-11 18:29N 22°57' E 119°57'813.5
2018-Jun-11 17:53N 22°50' E 120°01'513.2
2018-Jun-11 17:30N 22°45' E 120°04'612.5
2018-Jun-11 17:00N 22°40' E 120°07'612.6
2018-Jun-11 16:30N 22°38' E 120°13'4 7.6
2018-Jun-11 16:00N 22°36' E 120°17'0 0.0
2018-Jun-11 11:20N 22°36' E 120°17'0 0.0
2018-Jun-11 09:20N 22°36' E 120°17'0 0.0
2018-Jun-11 08:56N 22°36' E 120°17'0 0.0
2018-Jun-11 08:26N 22°36' E 120°17'0 0.0
2018-Jun-11 07:50N 22°36' E 120°17'0 0.0
2018-Jun-11 07:26N 22°36' E 120°17'0 0.0
2018-Jun-11 06:56N 22°36' E 120°17'0 0.0
2018-Jun-11 06:26N 22°36' E 120°17'0 0.0
2018-Jun-11 05:56N 22°36' E 120°17'0 0.0
2018-Jun-11 05:26N 22°36' E 120°17'0 0.0
2018-Jun-11 04:44N 22°36' E 120°17'0 0.0
2018-Jun-11 04:26N 22°36' E 120°17'0 0.0
2018-Jun-11 03:56N 22°36' E 120°17'0 0.0
2018-Jun-11 03:26N 22°36' E 120°17'0 0.0
2018-Jun-11 02:56N 22°36' E 120°17'0 0.0
2018-Jun-11 02:26N 22°36' E 120°17'0 0.0
2018-Jun-11 01:56N 22°36' E 120°17'0 0.0
2018-Jun-11 01:26N 22°36' E 120°17'0 0.0
2018-Jun-11 00:38N 22°36' E 120°17'0 0.0
2018-Jun-11 00:20N 22°36' E 120°17'0 0.0
2018-Jun-10 23:56N 22°36' E 120°17'0 0.0
2018-Jun-10 23:26N 22°36' E 120°17'0 0.0
2018-Jun-10 22:56N 22°36' E 120°17'0 0.0
2018-Jun-10 22:26N 22°36' E 120°17'0 0.0
2018-Jun-10 21:56N 22°36' E 120°17'0 0.6
2018-Jun-10 21:30N 22°36' E 120°17'1 1.8
2018-Jun-10 20:54N 22°35' E 120°18'0 0.0
2018-Jun-10 20:24N 22°35' E 120°18'0 0.0
2018-Jun-10 20:00N 22°35' E 120°18'0 0.0
2018-Jun-10 19:30N 22°35' E 120°18'0 0.0
2018-Jun-10 19:00N 22°35' E 120°18'0 0.0
2018-Jun-10 18:30N 22°35' E 120°18'0 0.0
2018-Jun-10 18:00N 22°35' E 120°18'0 0.0
2018-Jun-10 17:30N 22°35' E 120°18'0 0.0
2018-Jun-10 17:00N 22°35' E 120°18'0 0.0
2018-Jun-10 16:30N 22°35' E 120°18'0 0.0
2018-Jun-10 14:54N 22°35' E 120°18'0 0.0
2018-Jun-10 14:30N 22°35' E 120°18'0 0.0
2018-Jun-10 13:12N 22°35' E 120°18'0 0.0
2018-Jun-10 09:42N 22°35' E 120°18'0 0.0
2018-Jun-10 09:30N 22°35' E 120°18'0 0.0
2018-Jun-10 09:00N 22°35' E 120°18'0 0.0
2018-Jun-10 07:24N 22°35' E 120°18'0 0.0
2018-Jun-10 03:48N 22°35' E 120°18'0 0.0
2018-Jun-10 03:18N 22°35' E 120°18'0 0.0
2018-Jun-10 03:00N 22°35' E 120°18'0 0.0
2018-Jun-10 00:43N 22°35' E 120°18'0 2.1
2018-Jun-10 00:30N 22°35' E 120°18'3 5.9
2018-Jun-10 00:00N 22°37' E 120°15'2 4.5
2018-Jun-09 23:30N 22°37' E 120°13'3 5.2
2018-Jun-09 23:00N 22°37' E 120°10'3 6.5
2018-Jun-09 22:30N 22°36' E 120°07'1 2.2
2018-Jun-09 22:00N 22°36' E 120°06'0 1.0
2018-Jun-09 21:29N 22°35' E 120°05'2 4.2
2018-Jun-09 21:00N 22°34' E 120°04'1 2.3
2018-Jun-09 20:29N 22°33' E 120°03'1 1.5
2018-Jun-09 20:00N 22°34' E 120°03'3 5.2
2018-Jun-09 19:30N 22°32' E 120°01'4 7.5
2018-Jun-09 19:00N 22°28' E 120°01'6 9.8
2018-Jun-09 18:22N 22°22' E 120°01'3 8.9
2018-Jun-09 18:00N 22°19' E 120°01'3 6.4
2018-Jun-09 17:30N 22°15' E 120°01'7 6.7
2018-Jun-09 16:31N 22°09' E 119°60'  

Dump ship's entire track history